Terminal Aerodrome Forecast
Issued by NWS Los Angeles, CA

Current Version | Previous Version | Text Only | Print | Product List | Glossary On
Versions: 1 2 3 4 5 6 7 8 9 10 11 12 13 14 15
947
FTUS46 KLOX 251122
TAFSMX
TAF
KSMX 251122Z 2512/2612 VRB03KT P6SM SKC
     FM251900 31010KT P6SM SKC
     FM252100 31016KT P6SM SKC
     FM260200 30010KT P6SM SKC
     FM260500 VRB03KT P6SM SKC=

USA.gov is the U.S. government's official web portal to all federal, state and local government web resources and services.